sensor_id;sensor_type;location;lat;lon;timestamp;P1;durP1;ratioP1;P2;durP2;ratioP2
25972;SDS011;13765;51.166;4.466;2023-04-24T00:01:56;23.58;;;9.48;;
25972;SDS011;13765;51.166;4.466;2023-04-24T00:04:22;25.83;;;7.82;;
25972;SDS011;13765;51.166;4.466;2023-04-24T00:06:50;20.63;;;7.72;;
25972;SDS011;13765;51.166;4.466;2023-04-24T00:09:19;24.17;;;8.70;;
25972;SDS011;13765;51.166;4.466;2023-04-24T00:11:44;21.92;;;8.15;;
25972;SDS011;13765;51.166;4.466;2023-04-24T00:14:10;21.23;;;8.48;;
25972;SDS011;13765;51.166;4.466;2023-04-24T00:16:36;22.88;;;9.38;;
25972;SDS011;13765;51.166;4.466;2023-04-24T00:19:04;19.92;;;7.78;;
25972;SDS011;13765;51.166;4.466;2023-04-24T00:21:31;23.45;;;9.52;;
25972;SDS011;13765;51.166;4.466;2023-04-24T00:23:57;31.35;;;10.70;;
25972;SDS011;13765;51.166;4.466;2023-04-24T00:26:25;23.15;;;8.98;;
25972;SDS011;13765;51.166;4.466;2023-04-24T00:28:51;24.95;;;9.43;;
25972;SDS011;13765;51.166;4.466;2023-04-24T00:31:17;22.27;;;9.25;;
25972;SDS011;13765;51.166;4.466;2023-04-24T00:33:45;23.77;;;9.35;;
25972;SDS011;13765;51.166;4.466;2023-04-24T00:36:10;24.90;;;9.25;;
25972;SDS011;13765;51.166;4.466;2023-04-24T00:38:41;27.25;;;10.40;;
25972;SDS011;13765;51.166;4.466;2023-04-24T00:41:06;24.15;;;8.88;;
25972;SDS011;13765;51.166;4.466;2023-04-24T00:43:32;20.75;;;8.15;;
25972;SDS011;13765;51.166;4.466;2023-04-24T00:46:00;32.28;;;9.32;;
25972;SDS011;13765;51.166;4.466;2023-04-24T00:48:26;22.13;;;8.80;;
25972;SDS011;13765;51.166;4.466;2023-04-24T00:50:53;26.58;;;9.23;;
25972;SDS011;13765;51.166;4.466;2023-04-24T00:53:19;22.73;;;9.07;;
25972;SDS011;13765;51.166;4.466;2023-04-24T00:55:47;26.30;;;9.73;;
25972;SDS011;13765;51.166;4.466;2023-04-24T00:58:13;24.95;;;9.63;;
25972;SDS011;13765;51.166;4.466;2023-04-24T01:00:38;27.33;;;9.70;;
25972;SDS011;13765;51.166;4.466;2023-04-24T01:03:04;29.45;;;8.55;;
25972;SDS011;13765;51.166;4.466;2023-04-24T01:05:31;27.38;;;9.27;;
25972;SDS011;13765;51.166;4.466;2023-04-24T01:07:57;24.02;;;8.27;;
25972;SDS011;13765;51.166;4.466;2023-04-24T01:10:24;24.08;;;8.43;;
25972;SDS011;13765;51.166;4.466;2023-04-24T01:12:52;23.05;;;8.93;;
25972;SDS011;13765;51.166;4.466;2023-04-24T01:15:22;19.80;;;6.82;;
25972;SDS011;13765;51.166;4.466;2023-04-24T01:17:48;27.38;;;9.00;;
25972;SDS011;13765;51.166;4.466;2023-04-24T01:20:15;28.10;;;7.20;;
25972;SDS011;13765;51.166;4.466;2023-04-24T01:22:44;24.05;;;8.85;;
25972;SDS011;13765;51.166;4.466;2023-04-24T01:25:10;21.02;;;8.10;;
25972;SDS011;13765;51.166;4.466;2023-04-24T01:27:35;21.55;;;8.00;;
25972;SDS011;13765;51.166;4.466;2023-04-24T01:30:01;20.80;;;7.82;;
25972;SDS011;13765;51.166;4.466;2023-04-24T01:32:29;19.67;;;8.05;;
25972;SDS011;13765;51.166;4.466;2023-04-24T01:34:55;21.02;;;8.00;;
25972;SDS011;13765;51.166;4.466;2023-04-24T01:37:20;20.98;;;6.97;;
25972;SDS011;13765;51.166;4.466;2023-04-24T01:39:48;19.27;;;7.30;;
25972;SDS011;13765;51.166;4.466;2023-04-24T01:42:16;21.85;;;7.60;;
25972;SDS011;13765;51.166;4.466;2023-04-24T01:44:42;17.00;;;6.00;;
25972;SDS011;13765;51.166;4.466;2023-04-24T01:47:08;23.08;;;7.75;;
25972;SDS011;13765;51.166;4.466;2023-04-24T01:49:34;13.40;;;5.72;;
25972;SDS011;13765;51.166;4.466;2023-04-24T01:51:59;20.52;;;7.45;;
25972;SDS011;13765;51.166;4.466;2023-04-24T01:54:25;16.58;;;5.60;;
25972;SDS011;13765;51.166;4.466;2023-04-24T01:56:51;18.85;;;6.70;;
25972;SDS011;13765;51.166;4.466;2023-04-24T01:59:16;20.30;;;5.85;;
25972;SDS011;13765;51.166;4.466;2023-04-24T02:01:43;20.58;;;6.80;;
25972;SDS011;13765;51.166;4.466;2023-04-24T02:04:08;29.08;;;6.88;;
25972;SDS011;13765;51.166;4.466;2023-04-24T02:06:36;21.15;;;7.25;;
25972;SDS011;13765;51.166;4.466;2023-04-24T02:09:02;15.93;;;6.03;;
25972;SDS011;13765;51.166;4.466;2023-04-24T02:11:30;20.75;;;7.53;;
25972;SDS011;13765;51.166;4.466;2023-04-24T02:13:58;15.07;;;6.03;;
25972;SDS011;13765;51.166;4.466;2023-04-24T02:16:23;15.25;;;5.65;;
25972;SDS011;13765;51.166;4.466;2023-04-24T02:18:49;15.45;;;5.20;;
25972;SDS011;13765;51.166;4.466;2023-04-24T02:21:15;17.92;;;6.00;;
25972;SDS011;13765;51.166;4.466;2023-04-24T02:23:46;14.27;;;5.22;;
25972;SDS011;13765;51.166;4.466;2023-04-24T02:26:16;23.42;;;6.22;;
25972;SDS011;13765;51.166;4.466;2023-04-24T02:28:43;15.68;;;5.22;;
25972;SDS011;13765;51.166;4.466;2023-04-24T02:31:08;16.73;;;5.70;;
25972;SDS011;13765;51.166;4.466;2023-04-24T02:33:36;15.75;;;5.97;;
25972;SDS011;13765;51.166;4.466;2023-04-24T02:36:02;12.40;;;5.10;;
25972;SDS011;13765;51.166;4.466;2023-04-24T02:38:28;14.15;;;5.72;;
25972;SDS011;13765;51.166;4.466;2023-04-24T02:40:54;19.98;;;6.35;;
25972;SDS011;13765;51.166;4.466;2023-04-24T02:43:22;13.95;;;4.93;;
25972;SDS011;13765;51.166;4.466;2023-04-24T02:45:48;16.63;;;5.68;;
25972;SDS011;13765;51.166;4.466;2023-04-24T02:48:16;13.93;;;5.03;;
25972;SDS011;13765;51.166;4.466;2023-04-24T02:50:45;12.05;;;4.28;;
25972;SDS011;13765;51.166;4.466;2023-04-24T02:53:11;16.70;;;6.20;;
25972;SDS011;13765;51.166;4.466;2023-04-24T02:55:37;17.17;;;5.20;;
25972;SDS011;13765;51.166;4.466;2023-04-24T02:58:02;13.80;;;4.47;;
25972;SDS011;13765;51.166;4.466;2023-04-24T03:00:31;14.18;;;4.82;;
25972;SDS011;13765;51.166;4.466;2023-04-24T03:02:56;15.68;;;5.85;;
25972;SDS011;13765;51.166;4.466;2023-04-24T03:05:24;16.23;;;6.20;;
25972;SDS011;13765;51.166;4.466;2023-04-24T03:07:50;15.40;;;5.05;;
25972;SDS011;13765;51.166;4.466;2023-04-24T03:10:17;12.82;;;4.72;;
25972;SDS011;13765;51.166;4.466;2023-04-24T03:12:47;13.05;;;4.45;;
25972;SDS011;13765;51.166;4.466;2023-04-24T03:15:13;14.95;;;5.05;;
25972;SDS011;13765;51.166;4.466;2023-04-24T03:17:41;15.88;;;5.90;;
25972;SDS011;13765;51.166;4.466;2023-04-24T03:20:07;14.10;;;5.10;;
25972;SDS011;13765;51.166;4.466;2023-04-24T03:22:33;16.05;;;4.68;;
25972;SDS011;13765;51.166;4.466;2023-04-24T03:25:02;15.73;;;4.63;;
25972;SDS011;13765;51.166;4.466;2023-04-24T03:27:28;16.27;;;5.40;;
25972;SDS011;13765;51.166;4.466;2023-04-24T03:29:56;12.48;;;4.60;;
25972;SDS011;13765;51.166;4.466;2023-04-24T03:32:22;17.23;;;6.05;;
25972;SDS011;13765;51.166;4.466;2023-04-24T03:34:48;13.85;;;4.90;;
25972;SDS011;13765;51.166;4.466;2023-04-24T03:37:15;15.38;;;5.82;;
25972;SDS011;13765;51.166;4.466;2023-04-24T03:39:41;13.27;;;5.78;;
25972;SDS011;13765;51.166;4.466;2023-04-24T03:42:07;17.98;;;6.07;;
25972;SDS011;13765;51.166;4.466;2023-04-24T03:44:33;18.67;;;5.70;;
25972;SDS011;13765;51.166;4.466;2023-04-24T03:47:02;18.00;;;6.10;;
25972;SDS011;13765;51.166;4.466;2023-04-24T03:49:30;13.73;;;4.50;;
25972;SDS011;13765;51.166;4.466;2023-04-24T03:51:57;16.95;;;5.60;;
25972;SDS011;13765;51.166;4.466;2023-04-24T03:54:23;13.77;;;4.10;;
25972;SDS011;13765;51.166;4.466;2023-04-24T03:56:54;20.15;;;4.97;;
25972;SDS011;13765;51.166;4.466;2023-04-24T03:59:19;11.52;;;4.28;;
25972;SDS011;13765;51.166;4.466;2023-04-24T04:01:48;10.82;;;4.05;;
25972;SDS011;13765;51.166;4.466;2023-04-24T04:04:13;11.40;;;3.83;;
25972;SDS011;13765;51.166;4.466;2023-04-24T04:06:39;9.55;;;3.55;;
25972;SDS011;13765;51.166;4.466;2023-04-24T04:09:05;10.10;;;3.30;;
25972;SDS011;13765;51.166;4.466;2023-04-24T04:11:33;8.18;;;3.13;;
25972;SDS011;13765;51.166;4.466;2023-04-24T04:14:00;8.40;;;3.20;;
25972;SDS011;13765;51.166;4.466;2023-04-24T04:16:26;8.77;;;2.88;;
25972;SDS011;13765;51.166;4.466;2023-04-24T04:18:51;7.22;;;2.60;;
25972;SDS011;13765;51.166;4.466;2023-04-24T04:21:17;11.45;;;3.75;;
25972;SDS011;13765;51.166;4.466;2023-04-24T04:23:43;8.57;;;3.00;;
25972;SDS011;13765;51.166;4.466;2023-04-24T04:26:08;8.40;;;2.58;;
25972;SDS011;13765;51.166;4.466;2023-04-24T04:28:39;6.93;;;3.30;;
25972;SDS011;13765;51.166;4.466;2023-04-24T04:31:05;10.85;;;4.07;;
25972;SDS011;13765;51.166;4.466;2023-04-24T04:33:33;5.63;;;2.75;;
25972;SDS011;13765;51.166;4.466;2023-04-24T04:36:03;9.25;;;3.53;;
25972;SDS011;13765;51.166;4.466;2023-04-24T04:38:29;10.98;;;4.40;;
25972;SDS011;13765;51.166;4.466;2023-04-24T04:40:57;7.53;;;3.20;;
25972;SDS011;13765;51.166;4.466;2023-04-24T04:43:25;11.63;;;3.33;;
25972;SDS011;13765;51.166;4.466;2023-04-24T04:45:51;10.48;;;2.92;;
25972;SDS011;13765;51.166;4.466;2023-04-24T04:48:19;8.30;;;3.97;;
25972;SDS011;13765;51.166;4.466;2023-04-24T04:50:49;13.15;;;4.95;;
25972;SDS011;13765;51.166;4.466;2023-04-24T04:53:15;16.23;;;5.53;;
25972;SDS011;13765;51.166;4.466;2023-04-24T04:55:41;15.57;;;5.50;;
25972;SDS011;13765;51.166;4.466;2023-04-24T04:58:07;18.70;;;7.65;;
25972;SDS011;13765;51.166;4.466;2023-04-24T05:00:32;21.67;;;6.95;;
25972;SDS011;13765;51.166;4.466;2023-04-24T05:03:00;21.38;;;7.75;;
25972;SDS011;13765;51.166;4.466;2023-04-24T05:05:29;18.15;;;6.70;;
25972;SDS011;13765;51.166;4.466;2023-04-24T05:07:57;24.60;;;9.25;;
25972;SDS011;13765;51.166;4.466;2023-04-24T05:10:23;22.88;;;8.80;;
25972;SDS011;13765;51.166;4.466;2023-04-24T05:12:48;21.38;;;7.03;;
25972;SDS011;13765;51.166;4.466;2023-04-24T05:15:14;22.45;;;8.43;;
25972;SDS011;13765;51.166;4.466;2023-04-24T05:17:42;17.25;;;7.75;;
25972;SDS011;13765;51.166;4.466;2023-04-24T05:20:08;20.48;;;6.95;;
25972;SDS011;13765;51.166;4.466;2023-04-24T05:22:34;24.35;;;5.82;;
25972;SDS011;13765;51.166;4.466;2023-04-24T05:25:00;26.00;;;7.75;;
25972;SDS011;13765;51.166;4.466;2023-04-24T05:27:27;21.67;;;7.07;;
25972;SDS011;13765;51.166;4.466;2023-04-24T05:29:53;18.63;;;5.97;;
25972;SDS011;13765;51.166;4.466;2023-04-24T05:32:18;16.17;;;6.07;;
25972;SDS011;13765;51.166;4.466;2023-04-24T05:34:46;17.77;;;6.13;;
25972;SDS011;13765;51.166;4.466;2023-04-24T05:37:17;11.30;;;4.63;;
25972;SDS011;13765;51.166;4.466;2023-04-24T05:39:45;15.75;;;4.55;;
25972;SDS011;13765;51.166;4.466;2023-04-24T05:42:10;13.93;;;4.95;;
25972;SDS011;13765;51.166;4.466;2023-04-24T05:44:36;18.35;;;3.95;;
25972;SDS011;13765;51.166;4.466;2023-04-24T05:47:02;12.85;;;4.50;;
25972;SDS011;13765;51.166;4.466;2023-04-24T05:49:27;15.02;;;4.35;;
25972;SDS011;13765;51.166;4.466;2023-04-24T05:51:53;11.52;;;3.70;;
25972;SDS011;13765;51.166;4.466;2023-04-24T05:54:21;14.32;;;4.57;;
25972;SDS011;13765;51.166;4.466;2023-04-24T05:56:49;18.77;;;5.20;;
25972;SDS011;13765;51.166;4.466;2023-04-24T05:59:15;17.85;;;5.70;;
25972;SDS011;13765;51.166;4.466;2023-04-24T06:01:41;26.52;;;5.40;;
25972;SDS011;13765;51.166;4.466;2023-04-24T06:04:07;20.40;;;5.47;;
25972;SDS011;13765;51.166;4.466;2023-04-24T06:06:38;15.38;;;5.32;;
25972;SDS011;13765;51.166;4.466;2023-04-24T06:09:04;20.10;;;7.53;;
25972;SDS011;13765;51.166;4.466;2023-04-24T06:11:30;18.70;;;6.88;;
25972;SDS011;13765;51.166;4.466;2023-04-24T06:13:55;24.40;;;8.60;;
25972;SDS011;13765;51.166;4.466;2023-04-24T06:16:21;23.08;;;7.80;;
25972;SDS011;13765;51.166;4.466;2023-04-24T06:18:47;17.35;;;6.20;;
25972;SDS011;13765;51.166;4.466;2023-04-24T06:21:12;16.15;;;6.13;;
25972;SDS011;13765;51.166;4.466;2023-04-24T06:23:38;17.77;;;7.65;;
25972;SDS011;13765;51.166;4.466;2023-04-24T06:26:04;18.85;;;5.18;;
25972;SDS011;13765;51.166;4.466;2023-04-24T06:28:30;21.77;;;5.68;;
25972;SDS011;13765;51.166;4.466;2023-04-24T06:31:00;24.25;;;6.85;;
25972;SDS011;13765;51.166;4.466;2023-04-24T06:33:25;25.13;;;6.53;;
25972;SDS011;13765;51.166;4.466;2023-04-24T06:35:51;19.10;;;6.05;;
25972;SDS011;13765;51.166;4.466;2023-04-24T06:38:17;16.20;;;5.90;;
25972;SDS011;13765;51.166;4.466;2023-04-24T06:40:47;16.92;;;5.57;;
25972;SDS011;13765;51.166;4.466;2023-04-24T06:43:13;19.67;;;5.88;;
25972;SDS011;13765;51.166;4.466;2023-04-24T06:45:39;28.02;;;6.80;;
25972;SDS011;13765;51.166;4.466;2023-04-24T06:48:05;17.15;;;6.60;;
25972;SDS011;13765;51.166;4.466;2023-04-24T06:50:31;22.33;;;6.60;;
25972;SDS011;13765;51.166;4.466;2023-04-24T06:52:56;21.58;;;5.82;;
25972;SDS011;13765;51.166;4.466;2023-04-24T06:55:22;22.27;;;5.75;;
25972;SDS011;13765;51.166;4.466;2023-04-24T06:57:48;17.98;;;6.30;;
25972;SDS011;13765;51.166;4.466;2023-04-24T07:00:13;22.58;;;6.93;;
25972;SDS011;13765;51.166;4.466;2023-04-24T07:02:39;29.67;;;7.22;;
25972;SDS011;13765;51.166;4.466;2023-04-24T07:05:05;20.60;;;6.15;;
25972;SDS011;13765;51.166;4.466;2023-04-24T07:07:33;16.45;;;5.57;;
25972;SDS011;13765;51.166;4.466;2023-04-24T07:10:11;13.77;;;4.13;;
25972;SDS011;13765;51.166;4.466;2023-04-24T07:12:38;10.73;;;4.35;;
25972;SDS011;13765;51.166;4.466;2023-04-24T07:15:06;16.63;;;6.13;;
25972;SDS011;13765;51.166;4.466;2023-04-24T07:17:33;16.33;;;4.88;;
25972;SDS011;13765;51.166;4.466;2023-04-24T07:20:03;14.43;;;4.85;;
25972;SDS011;13765;51.166;4.466;2023-04-24T07:22:30;15.52;;;4.35;;
25972;SDS011;13765;51.166;4.466;2023-04-24T07:24:56;8.90;;;4.22;;
25972;SDS011;13765;51.166;4.466;2023-04-24T07:27:22;16.20;;;4.85;;
25972;SDS011;13765;51.166;4.466;2023-04-24T07:29:47;16.50;;;4.45;;
25972;SDS011;13765;51.166;4.466;2023-04-24T07:32:16;11.82;;;4.05;;
25972;SDS011;13765;51.166;4.466;2023-04-24T07:34:45;9.90;;;3.70;;
25972;SDS011;13765;51.166;4.466;2023-04-24T07:37:17;17.23;;;3.38;;
25972;SDS011;13765;51.166;4.466;2023-04-24T07:39:45;5.40;;;2.80;;
25972;SDS011;13765;51.166;4.466;2023-04-24T07:42:13;9.65;;;2.78;;
25972;SDS011;13765;51.166;4.466;2023-04-24T07:44:41;11.07;;;3.55;;
25972;SDS011;13765;51.166;4.466;2023-04-24T07:47:09;10.95;;;3.38;;
25972;SDS011;13765;51.166;4.466;2023-04-24T07:49:37;10.55;;;3.60;;
25972;SDS011;13765;51.166;4.466;2023-04-24T07:52:03;6.95;;;3.05;;
25972;SDS011;13765;51.166;4.466;2023-04-24T07:54:31;6.93;;;2.22;;
25972;SDS011;13765;51.166;4.466;2023-04-24T07:56:56;12.40;;;2.80;;
25972;SDS011;13765;51.166;4.466;2023-04-24T07:59:22;10.93;;;2.88;;
25972;SDS011;13765;51.166;4.466;2023-04-24T08:01:50;8.80;;;2.88;;
25972;SDS011;13765;51.166;4.466;2023-04-24T08:04:16;11.50;;;3.08;;
25972;SDS011;13765;51.166;4.466;2023-04-24T08:06:42;13.32;;;3.72;;
25972;SDS011;13765;51.166;4.466;2023-04-24T08:09:08;14.50;;;3.33;;
25972;SDS011;13765;51.166;4.466;2023-04-24T08:11:34;15.20;;;2.80;;
25972;SDS011;13765;51.166;4.466;2023-04-24T08:14:00;12.38;;;3.28;;
25972;SDS011;13765;51.166;4.466;2023-04-24T08:16:30;17.23;;;3.42;;
25972;SDS011;13765;51.166;4.466;2023-04-24T08:19:00;10.23;;;2.78;;
25972;SDS011;13765;51.166;4.466;2023-04-24T08:21:28;16.60;;;3.55;;
25972;SDS011;13765;51.166;4.466;2023-04-24T08:23:56;6.25;;;2.47;;
25972;SDS011;13765;51.166;4.466;2023-04-24T08:26:23;15.35;;;3.15;;
25972;SDS011;13765;51.166;4.466;2023-04-24T08:28:49;6.95;;;2.30;;
25972;SDS011;13765;51.166;4.466;2023-04-24T08:31:15;9.15;;;4.10;;
25972;SDS011;13765;51.166;4.466;2023-04-24T08:33:41;6.28;;;2.28;;
25972;SDS011;13765;51.166;4.466;2023-04-24T08:36:07;13.05;;;3.45;;
25972;SDS011;13765;51.166;4.466;2023-04-24T08:38:35;10.18;;;2.83;;
25972;SDS011;13765;51.166;4.466;2023-04-24T08:41:01;12.00;;;3.72;;
25972;SDS011;13765;51.166;4.466;2023-04-24T08:43:30;11.02;;;3.28;;
25972;SDS011;13765;51.166;4.466;2023-04-24T08:46:00;8.68;;;2.83;;
25972;SDS011;13765;51.166;4.466;2023-04-24T08:48:25;15.10;;;3.70;;
25972;SDS011;13765;51.166;4.466;2023-04-24T08:50:52;12.40;;;4.05;;
25972;SDS011;13765;51.166;4.466;2023-04-24T08:53:19;11.32;;;3.78;;
25972;SDS011;13765;51.166;4.466;2023-04-24T08:55:46;12.73;;;3.60;;
25972;SDS011;13765;51.166;4.466;2023-04-24T08:58:13;16.75;;;3.33;;
25972;SDS011;13765;51.166;4.466;2023-04-24T09:00:43;8.45;;;2.95;;
25972;SDS011;13765;51.166;4.466;2023-04-24T09:03:12;15.30;;;3.35;;
25972;SDS011;13765;51.166;4.466;2023-04-24T09:05:46;10.35;;;3.03;;
25972;SDS011;13765;51.166;4.466;2023-04-24T09:08:16;11.32;;;2.88;;
25972;SDS011;13765;51.166;4.466;2023-04-24T09:10:45;12.25;;;3.60;;
25972;SDS011;13765;51.166;4.466;2023-04-24T09:13:14;9.60;;;2.88;;
25972;SDS011;13765;51.166;4.466;2023-04-24T09:15:40;13.30;;;2.97;;
25972;SDS011;13765;51.166;4.466;2023-04-24T09:18:06;9.15;;;2.65;;
25972;SDS011;13765;51.166;4.466;2023-04-24T09:20:32;6.45;;;2.33;;
25972;SDS011;13765;51.166;4.466;2023-04-24T09:23:08;6.95;;;1.83;;
25972;SDS011;13765;51.166;4.466;2023-04-24T09:25:41;12.77;;;3.70;;
25972;SDS011;13765;51.166;4.466;2023-04-24T09:28:06;7.97;;;2.47;;
25972;SDS011;13765;51.166;4.466;2023-04-24T09:30:32;12.30;;;3.55;;
25972;SDS011;13765;51.166;4.466;2023-04-24T09:33:14;12.45;;;2.83;;
25972;SDS011;13765;51.166;4.466;2023-04-24T09:35:41;11.07;;;3.13;;
25972;SDS011;13765;51.166;4.466;2023-04-24T09:38:10;15.98;;;5.30;;
25972;SDS011;13765;51.166;4.466;2023-04-24T09:40:36;13.90;;;3.70;;
25972;SDS011;13765;51.166;4.466;2023-04-24T09:43:01;15.23;;;3.60;;
25972;SDS011;13765;51.166;4.466;2023-04-24T09:45:37;16.75;;;3.78;;
25972;SDS011;13765;51.166;4.466;2023-04-24T09:48:09;7.32;;;2.05;;
25972;SDS011;13765;51.166;4.466;2023-04-24T09:50:35;8.05;;;2.38;;
25972;SDS011;13765;51.166;4.466;2023-04-24T09:53:02;18.70;;;3.03;;
25972;SDS011;13765;51.166;4.466;2023-04-24T09:55:29;13.43;;;2.92;;
25972;SDS011;13765;51.166;4.466;2023-04-24T09:57:59;8.98;;;2.45;;
25972;SDS011;13765;51.166;4.466;2023-04-24T10:00:32;4.28;;;2.42;;
25972;SDS011;13765;51.166;4.466;2023-04-24T10:03:02;14.32;;;2.20;;
25972;SDS011;13765;51.166;4.466;2023-04-24T10:08:01;7.28;;;2.13;;
25972;SDS011;13765;51.166;4.466;2023-04-24T10:10:28;3.05;;;1.70;;
25972;SDS011;13765;51.166;4.466;2023-04-24T10:12:54;5.22;;;1.50;;
25972;SDS011;13765;51.166;4.466;2023-04-24T10:15:20;2.15;;;1.40;;
25972;SDS011;13765;51.166;4.466;2023-04-24T10:17:47;4.00;;;1.48;;
25972;SDS011;13765;51.166;4.466;2023-04-24T10:20:18;2.10;;;1.35;;
25972;SDS011;13765;51.166;4.466;2023-04-24T10:22:49;4.93;;;1.70;;
25972;SDS011;13765;51.166;4.466;2023-04-24T10:25:21;3.50;;;1.60;;
25972;SDS011;13765;51.166;4.466;2023-04-24T10:27:54;3.78;;;1.10;;
25972;SDS011;13765;51.166;4.466;2023-04-24T10:30:23;7.25;;;1.95;;
25972;SDS011;13765;51.166;4.466;2023-04-24T10:32:49;5.68;;;1.45;;
25972;SDS011;13765;51.166;4.466;2023-04-24T10:35:15;9.77;;;2.00;;
25972;SDS011;13765;51.166;4.466;2023-04-24T10:37:49;3.38;;;1.52;;
25972;SDS011;13765;51.166;4.466;2023-04-24T10:40:25;2.60;;;1.40;;
25972;SDS011;13765;51.166;4.466;2023-04-24T10:42:53;12.10;;;2.63;;
25972;SDS011;13765;51.166;4.466;2023-04-24T10:45:19;9.07;;;1.70;;
25972;SDS011;13765;51.166;4.466;2023-04-24T10:47:56;3.15;;;1.40;;
25972;SDS011;13765;51.166;4.466;2023-04-24T10:50:23;3.42;;;1.55;;
25972;SDS011;13765;51.166;4.466;2023-04-24T10:52:50;6.57;;;1.55;;
25972;SDS011;13765;51.166;4.466;2023-04-24T10:55:38;6.30;;;2.35;;
25972;SDS011;13765;51.166;4.466;2023-04-24T10:58:12;7.75;;;2.17;;
25972;SDS011;13765;51.166;4.466;2023-04-24T11:00:40;5.30;;;1.98;;
25972;SDS011;13765;51.166;4.466;2023-04-24T11:03:24;6.90;;;2.13;;
25972;SDS011;13765;51.166;4.466;2023-04-24T11:08:27;5.65;;;2.13;;
25972;SDS011;13765;51.166;4.466;2023-04-24T11:10:56;2.88;;;1.30;;
25972;SDS011;13765;51.166;4.466;2023-04-24T11:13:31;5.32;;;1.67;;
25972;SDS011;13765;51.166;4.466;2023-04-24T11:19:17;6.60;;;1.40;;
25972;SDS011;13765;51.166;4.466;2023-04-24T11:21:55;4.30;;;1.52;;
25972;SDS011;13765;51.166;4.466;2023-04-24T11:24:29;4.47;;;1.42;;
25972;SDS011;13765;51.166;4.466;2023-04-24T11:29:49;7.43;;;1.38;;
25972;SDS011;13765;51.166;4.466;2023-04-24T11:32:33;8.73;;;1.77;;
25972;SDS011;13765;51.166;4.466;2023-04-24T11:35:15;3.72;;;0.85;;
25972;SDS011;13765;51.166;4.466;2023-04-24T11:37:44;2.83;;;1.00;;
25972;SDS011;13765;51.166;4.466;2023-04-24T11:40:12;4.03;;;1.38;;
25972;SDS011;13765;51.166;4.466;2023-04-24T11:42:43;1.17;;;0.73;;
25972;SDS011;13765;51.166;4.466;2023-04-24T11:45:22;5.10;;;1.58;;
25972;SDS011;13765;51.166;4.466;2023-04-24T11:47:52;7.65;;;1.45;;
25972;SDS011;13765;51.166;4.466;2023-04-24T11:50:18;4.53;;;1.45;;
25972;SDS011;13765;51.166;4.466;2023-04-24T11:52:46;5.22;;;1.23;;
25972;SDS011;13765;51.166;4.466;2023-04-24T11:57:39;2.92;;;0.98;;
25972;SDS011;13765;51.166;4.466;2023-04-24T12:00:14;1.40;;;0.93;;
25972;SDS011;13765;51.166;4.466;2023-04-24T12:03:11;2.15;;;1.13;;
25972;SDS011;13765;51.166;4.466;2023-04-24T12:05:38;6.47;;;1.42;;
25972;SDS011;13765;51.166;4.466;2023-04-24T12:08:04;1.73;;;0.70;;
25972;SDS011;13765;51.166;4.466;2023-04-24T12:10:33;3.92;;;1.00;;
25972;SDS011;13765;51.166;4.466;2023-04-24T12:12:59;4.32;;;0.82;;
25972;SDS011;13765;51.166;4.466;2023-04-24T12:15:26;4.90;;;1.55;;
25972;SDS011;13765;51.166;4.466;2023-04-24T12:17:52;0.65;;;0.60;;
25972;SDS011;13765;51.166;4.466;2023-04-24T12:20:26;7.97;;;1.40;;
25972;SDS011;13765;51.166;4.466;2023-04-24T12:22:59;2.42;;;1.05;;
25972;SDS011;13765;51.166;4.466;2023-04-24T12:25:29;6.07;;;1.35;;
25972;SDS011;13765;51.166;4.466;2023-04-24T12:30:31;5.28;;;1.20;;
25972;SDS011;13765;51.166;4.466;2023-04-24T12:32:58;5.50;;;1.55;;
25972;SDS011;13765;51.166;4.466;2023-04-24T12:35:27;2.75;;;1.20;;
25972;SDS011;13765;51.166;4.466;2023-04-24T12:37:54;3.58;;;1.23;;
25972;SDS011;13765;51.166;4.466;2023-04-24T12:40:21;3.67;;;1.15;;
25972;SDS011;13765;51.166;4.466;2023-04-24T12:45:18;4.60;;;1.42;;
25972;SDS011;13765;51.166;4.466;2023-04-24T12:47:45;5.28;;;1.25;;
25972;SDS011;13765;51.166;4.466;2023-04-24T12:50:14;6.38;;;1.75;;
25972;SDS011;13765;51.166;4.466;2023-04-24T12:52:41;8.52;;;1.83;;
25972;SDS011;13765;51.166;4.466;2023-04-24T12:55:10;5.20;;;1.63;;
25972;SDS011;13765;51.166;4.466;2023-04-24T12:57:38;6.22;;;1.98;;
25972;SDS011;13765;51.166;4.466;2023-04-24T13:00:07;5.97;;;1.52;;
25972;SDS011;13765;51.166;4.466;2023-04-24T13:02:33;7.53;;;2.30;;
25972;SDS011;13765;51.166;4.466;2023-04-24T13:04:59;5.10;;;1.65;;
25972;SDS011;13765;51.166;4.466;2023-04-24T13:07:26;4.38;;;1.67;;
25972;SDS011;13765;51.166;4.466;2023-04-24T13:09:52;6.20;;;1.35;;
25972;SDS011;13765;51.166;4.466;2023-04-24T13:12:19;2.42;;;1.40;;
25972;SDS011;13765;51.166;4.466;2023-04-24T13:14:48;5.97;;;1.98;;
25972;SDS011;13765;51.166;4.466;2023-04-24T13:17:14;4.90;;;1.50;;
25972;SDS011;13765;51.166;4.466;2023-04-24T13:19:40;7.18;;;2.13;;
25972;SDS011;13765;51.166;4.466;2023-04-24T13:22:08;3.83;;;1.08;;
25972;SDS011;13765;51.166;4.466;2023-04-24T13:24:35;4.68;;;1.13;;
25972;SDS011;13765;51.166;4.466;2023-04-24T13:27:07;2.67;;;1.17;;
25972;SDS011;13765;51.166;4.466;2023-04-24T13:29:34;4.82;;;1.60;;
25972;SDS011;13765;51.166;4.466;2023-04-24T13:31:59;6.63;;;1.80;;
25972;SDS011;13765;51.166;4.466;2023-04-24T13:34:25;2.88;;;1.25;;
25972;SDS011;13765;51.166;4.466;2023-04-24T13:36:57;3.90;;;1.17;;
25972;SDS011;13765;51.166;4.466;2023-04-24T13:39:23;3.47;;;1.83;;
25972;SDS011;13765;51.166;4.466;2023-04-24T13:41:50;0.88;;;0.57;;
25972;SDS011;13765;51.166;4.466;2023-04-24T13:44:16;6.25;;;1.60;;
25972;SDS011;13765;51.166;4.466;2023-04-24T13:46:45;4.50;;;1.45;;
25972;SDS011;13765;51.166;4.466;2023-04-24T13:49:13;1.63;;;1.10;;
25972;SDS011;13765;51.166;4.466;2023-04-24T13:51:39;5.13;;;1.27;;
25972;SDS011;13765;51.166;4.466;2023-04-24T13:54:05;3.63;;;1.08;;
25972;SDS011;13765;51.166;4.466;2023-04-24T13:56:33;3.63;;;1.20;;
25972;SDS011;13765;51.166;4.466;2023-04-24T13:58:59;3.38;;;1.02;;
25972;SDS011;13765;51.166;4.466;2023-04-24T14:01:27;1.38;;;0.85;;
25972;SDS011;13765;51.166;4.466;2023-04-24T14:03:53;5.97;;;1.75;;
25972;SDS011;13765;51.166;4.466;2023-04-24T14:06:22;1.38;;;1.10;;
25972;SDS011;13765;51.166;4.466;2023-04-24T14:08:48;1.42;;;1.00;;
25972;SDS011;13765;51.166;4.466;2023-04-24T14:11:18;5.03;;;1.10;;
25972;SDS011;13765;51.166;4.466;2023-04-24T14:13:44;10.38;;;1.30;;
25972;SDS011;13765;51.166;4.466;2023-04-24T14:16:10;7.95;;;1.27;;
25972;SDS011;13765;51.166;4.466;2023-04-24T14:18:36;2.25;;;0.73;;
25972;SDS011;13765;51.166;4.466;2023-04-24T14:21:02;2.13;;;0.85;;
25972;SDS011;13765;51.166;4.466;2023-04-24T14:23:31;4.05;;;2.10;;
25972;SDS011;13765;51.166;4.466;2023-04-24T14:25:59;2.80;;;1.48;;
25972;SDS011;13765;51.166;4.466;2023-04-24T14:28:25;3.42;;;1.05;;
25972;SDS011;13765;51.166;4.466;2023-04-24T14:30:53;3.33;;;1.10;;
25972;SDS011;13765;51.166;4.466;2023-04-24T14:33:20;4.45;;;1.25;;
25972;SDS011;13765;51.166;4.466;2023-04-24T14:35:46;8.13;;;1.02;;
25972;SDS011;13765;51.166;4.466;2023-04-24T14:38:12;5.15;;;1.00;;
25972;SDS011;13765;51.166;4.466;2023-04-24T14:40:40;5.07;;;1.20;;
25972;SDS011;13765;51.166;4.466;2023-04-24T14:43:06;3.72;;;0.90;;
25972;SDS011;13765;51.166;4.466;2023-04-24T14:45:36;2.15;;;1.10;;
25972;SDS011;13765;51.166;4.466;2023-04-24T14:48:02;2.88;;;1.13;;
25972;SDS011;13765;51.166;4.466;2023-04-24T14:50:28;1.77;;;0.98;;
25972;SDS011;13765;51.166;4.466;2023-04-24T14:52:56;5.25;;;1.23;;
25972;SDS011;13765;51.166;4.466;2023-04-24T14:55:22;3.42;;;1.33;;
25972;SDS011;13765;51.166;4.466;2023-04-24T14:57:51;1.70;;;1.23;;
25972;SDS011;13765;51.166;4.466;2023-04-24T15:00:20;5.45;;;0.98;;
25972;SDS011;13765;51.166;4.466;2023-04-24T15:02:48;3.15;;;0.47;;